IAC weather

La Quiaca Airport
La Quiaca, Jujuy Province, Argentina

Public forecast

Using degrees Celsius for public forecast. Weather courtesy of forecast.io.

METAR (pilot weather report)

Closest report is Capitan Oriel Lea Plaza Airport, 60.5 nm (112.0 km) NE. Retrieved 2019/05/21 14:00 UTC (18 minutes ago):

SLTJ 211400Z 00000KT 9999 SCT020 BKN200 13/09 Q1022

TAF (pilot weather forecast)

Closest forecast is Capitan Oriel Lea Plaza Airport, 60.5 nm (112.0 km) NE. Retrieved 2019/05/21 12:23 UTC (2 hours ago):

TAF SLTJ 211000Z 2112/2212 00000KT 9999 FEW023 TX25/2119Z TN08/2211Z BECMG 2116/2118 13010KT SCT033 PROB30 TEMPO 2119/2121 FEW036CB BECMG 2123/2201 00000KT SCT023 SCT070